sensor_id;sensor_type;location;lat;lon;timestamp;temperature;humidity
15115;DHT22;7658;51.456;7.622;2022-08-01T00:00:14;18.50;99.90
15115;DHT22;7658;51.456;7.622;2022-08-01T00:02:40;18.60;99.90
15115;DHT22;7658;51.456;7.622;2022-08-01T00:05:07;18.50;99.90
15115;DHT22;7658;51.456;7.622;2022-08-01T00:07:36;18.50;99.90
15115;DHT22;7658;51.456;7.622;2022-08-01T00:10:08;18.50;99.90
15115;DHT22;7658;51.456;7.622;2022-08-01T00:12:34;18.50;99.90
15115;DHT22;7658;51.456;7.622;2022-08-01T00:14:59;18.50;99.90
15115;DHT22;7658;51.456;7.622;2022-08-01T00:17:25;18.50;99.90
15115;DHT22;7658;51.456;7.622;2022-08-01T00:19:51;18.40;99.90
15115;DHT22;7658;51.456;7.622;2022-08-01T00:22:17;18.40;99.90
15115;DHT22;7658;51.456;7.622;2022-08-01T00:24:43;18.40;99.90
15115;DHT22;7658;51.456;7.622;2022-08-01T00:27:08;18.40;99.90
15115;DHT22;7658;51.456;7.622;2022-08-01T00:29:34;18.30;99.90
15115;DHT22;7658;51.456;7.622;2022-08-01T00:32:00;18.30;99.90
15115;DHT22;7658;51.456;7.622;2022-08-01T00:34:26;18.30;99.90
15115;DHT22;7658;51.456;7.622;2022-08-01T00:36:52;18.30;99.90
15115;DHT22;7658;51.456;7.622;2022-08-01T00:39:17;18.30;99.90
15115;DHT22;7658;51.456;7.622;2022-08-01T00:41:43;18.30;99.90
15115;DHT22;7658;51.456;7.622;2022-08-01T00:44:09;18.20;99.90
15115;DHT22;7658;51.456;7.622;2022-08-01T00:46:35;18.20;99.90
15115;DHT22;7658;51.456;7.622;2022-08-01T00:49:01;18.20;99.90
15115;DHT22;7658;51.456;7.622;2022-08-01T00:51:27;18.20;99.90
15115;DHT22;7658;51.456;7.622;2022-08-01T00:53:53;18.20;99.90
15115;DHT22;7658;51.456;7.622;2022-08-01T00:56:20;18.20;99.90
15115;DHT22;7658;51.456;7.622;2022-08-01T00:58:47;18.20;99.90
15115;DHT22;7658;51.456;7.622;2022-08-01T01:01:13;18.20;99.90
15115;DHT22;7658;51.456;7.622;2022-08-01T01:03:39;18.20;99.90
15115;DHT22;7658;51.456;7.622;2022-08-01T01:11:37;18.20;99.90
15115;DHT22;7658;51.456;7.622;2022-08-01T01:14:10;18.20;99.90
15115;DHT22;7658;51.456;7.622;2022-08-01T01:16:41;18.20;99.90
15115;DHT22;7658;51.456;7.622;2022-08-01T01:19:10;18.20;99.90
15115;DHT22;7658;51.456;7.622;2022-08-01T01:24:39;18.20;99.90
15115;DHT22;7658;51.456;7.622;2022-08-01T01:27:18;18.10;99.90
15115;DHT22;7658;51.456;7.622;2022-08-01T01:29:50;18.20;99.90
15115;DHT22;7658;51.456;7.622;2022-08-01T01:32:23;18.20;99.90
15115;DHT22;7658;51.456;7.622;2022-08-01T01:34:54;18.20;99.90
15115;DHT22;7658;51.456;7.622;2022-08-01T01:37:23;18.20;99.90
15115;DHT22;7658;51.456;7.622;2022-08-01T01:39:51;18.20;99.90
15115;DHT22;7658;51.456;7.622;2022-08-01T01:42:19;18.20;99.90
15115;DHT22;7658;51.456;7.622;2022-08-01T01:44:47;18.20;99.90
15115;DHT22;7658;51.456;7.622;2022-08-01T01:47:16;18.20;99.90
15115;DHT22;7658;51.456;7.622;2022-08-01T01:49:44;18.20;99.90
15115;DHT22;7658;51.456;7.622;2022-08-01T01:52:13;18.20;99.90
15115;DHT22;7658;51.456;7.622;2022-08-01T01:54:44;18.20;99.90
15115;DHT22;7658;51.456;7.622;2022-08-01T01:57:12;18.10;99.90
15115;DHT22;7658;51.456;7.622;2022-08-01T01:59:39;18.10;99.90
15115;DHT22;7658;51.456;7.622;2022-08-01T02:02:07;18.10;99.90
15115;DHT22;7658;51.456;7.622;2022-08-01T02:04:36;18.10;99.90
15115;DHT22;7658;51.456;7.622;2022-08-01T02:07:03;18.10;99.90
15115;DHT22;7658;51.456;7.622;2022-08-01T02:09:31;18.10;99.90
15115;DHT22;7658;51.456;7.622;2022-08-01T02:11:58;18.10;99.90
15115;DHT22;7658;51.456;7.622;2022-08-01T02:14:25;18.10;99.90
15115;DHT22;7658;51.456;7.622;2022-08-01T02:16:54;18.10;99.90
15115;DHT22;7658;51.456;7.622;2022-08-01T02:19:23;18.10;99.90
15115;DHT22;7658;51.456;7.622;2022-08-01T02:22:00;18.10;99.90
15115;DHT22;7658;51.456;7.622;2022-08-01T02:25:10;18.10;99.90
15115;DHT22;7658;51.456;7.622;2022-08-01T02:27:43;18.20;99.90
15115;DHT22;7658;51.456;7.622;2022-08-01T02:30:13;18.10;99.90
15115;DHT22;7658;51.456;7.622;2022-08-01T02:32:48;18.10;99.90
15115;DHT22;7658;51.456;7.622;2022-08-01T02:35:27;18.10;99.90
15115;DHT22;7658;51.456;7.622;2022-08-01T02:37:55;18.10;99.90
15115;DHT22;7658;51.456;7.622;2022-08-01T02:40:21;18.10;99.90
15115;DHT22;7658;51.456;7.622;2022-08-01T02:42:51;18.10;99.90
15115;DHT22;7658;51.456;7.622;2022-08-01T02:45:18;18.10;99.90
15115;DHT22;7658;51.456;7.622;2022-08-01T02:47:47;18.10;99.90
15115;DHT22;7658;51.456;7.622;2022-08-01T02:50:16;18.10;99.90
15115;DHT22;7658;51.456;7.622;2022-08-01T02:52:46;18.10;99.90
15115;DHT22;7658;51.456;7.622;2022-08-01T02:55:14;18.10;99.90
15115;DHT22;7658;51.456;7.622;2022-08-01T02:57:41;18.20;99.90
15115;DHT22;7658;51.456;7.622;2022-08-01T03:00:08;18.10;99.90
15115;DHT22;7658;51.456;7.622;2022-08-01T03:02:35;18.10;99.90
15115;DHT22;7658;51.456;7.622;2022-08-01T03:05:02;18.20;99.90
15115;DHT22;7658;51.456;7.622;2022-08-01T03:07:29;18.20;99.90
15115;DHT22;7658;51.456;7.622;2022-08-01T03:09:56;18.10;99.90
15115;DHT22;7658;51.456;7.622;2022-08-01T03:12:27;18.10;99.90
15115;DHT22;7658;51.456;7.622;2022-08-01T03:14:56;18.10;99.90
15115;DHT22;7658;51.456;7.622;2022-08-01T03:17:25;18.10;99.90
15115;DHT22;7658;51.456;7.622;2022-08-01T03:19:52;18.10;99.90
15115;DHT22;7658;51.456;7.622;2022-08-01T03:22:21;18.10;99.90
15115;DHT22;7658;51.456;7.622;2022-08-01T03:24:52;18.20;99.90
15115;DHT22;7658;51.456;7.622;2022-08-01T03:27:21;18.20;99.90
15115;DHT22;7658;51.456;7.622;2022-08-01T03:29:48;18.20;99.90
15115;DHT22;7658;51.456;7.622;2022-08-01T03:32:16;18.20;99.90
15115;DHT22;7658;51.456;7.622;2022-08-01T03:34:43;18.20;99.90
15115;DHT22;7658;51.456;7.622;2022-08-01T03:37:21;18.20;99.90
15115;DHT22;7658;51.456;7.622;2022-08-01T03:39:58;18.10;99.90
15115;DHT22;7658;51.456;7.622;2022-08-01T03:42:33;18.00;99.90
15115;DHT22;7658;51.456;7.622;2022-08-01T03:45:06;17.90;99.90
15115;DHT22;7658;51.456;7.622;2022-08-01T03:47:35;17.80;99.90
15115;DHT22;7658;51.456;7.622;2022-08-01T03:50:03;17.80;99.90
15115;DHT22;7658;51.456;7.622;2022-08-01T03:52:30;17.80;99.90
15115;DHT22;7658;51.456;7.622;2022-08-01T03:55:01;17.70;99.90
15115;DHT22;7658;51.456;7.622;2022-08-01T03:57:28;17.70;99.90
15115;DHT22;7658;51.456;7.622;2022-08-01T03:59:58;17.60;99.90
15115;DHT22;7658;51.456;7.622;2022-08-01T04:02:26;17.60;99.90
15115;DHT22;7658;51.456;7.622;2022-08-01T04:04:53;17.60;99.90
15115;DHT22;7658;51.456;7.622;2022-08-01T04:07:28;17.60;99.90
15115;DHT22;7658;51.456;7.622;2022-08-01T04:09:55;17.60;99.90
15115;DHT22;7658;51.456;7.622;2022-08-01T04:12:21;17.60;99.90
15115;DHT22;7658;51.456;7.622;2022-08-01T04:14:48;17.60;99.90
15115;DHT22;7658;51.456;7.622;2022-08-01T04:17:15;17.70;99.90
15115;DHT22;7658;51.456;7.622;2022-08-01T04:19:41;17.70;99.90
15115;DHT22;7658;51.456;7.622;2022-08-01T04:22:09;17.70;99.90
15115;DHT22;7658;51.456;7.622;2022-08-01T04:24:36;17.70;99.90
15115;DHT22;7658;51.456;7.622;2022-08-01T04:27:05;17.70;99.90
15115;DHT22;7658;51.456;7.622;2022-08-01T04:29:33;17.80;99.90
15115;DHT22;7658;51.456;7.622;2022-08-01T04:32:02;17.80;99.90
15115;DHT22;7658;51.456;7.622;2022-08-01T04:34:30;17.70;99.90
15115;DHT22;7658;51.456;7.622;2022-08-01T04:36:58;17.80;99.90
15115;DHT22;7658;51.456;7.622;2022-08-01T04:39:27;17.80;99.90
15115;DHT22;7658;51.456;7.622;2022-08-01T04:41:54;17.80;99.90
15115;DHT22;7658;51.456;7.622;2022-08-01T04:44:24;17.80;99.90
15115;DHT22;7658;51.456;7.622;2022-08-01T04:46:50;17.80;99.90
15115;DHT22;7658;51.456;7.622;2022-08-01T04:49:20;17.80;99.90
15115;DHT22;7658;51.456;7.622;2022-08-01T04:51:54;17.90;99.90
15115;DHT22;7658;51.456;7.622;2022-08-01T04:54:34;17.90;99.90
15115;DHT22;7658;51.456;7.622;2022-08-01T04:57:03;17.90;99.90
15115;DHT22;7658;51.456;7.622;2022-08-01T04:59:30;17.90;99.90
15115;DHT22;7658;51.456;7.622;2022-08-01T05:02:13;17.90;99.90
15115;DHT22;7658;51.456;7.622;2022-08-01T05:04:41;17.90;99.90
15115;DHT22;7658;51.456;7.622;2022-08-01T05:07:08;17.90;99.90
15115;DHT22;7658;51.456;7.622;2022-08-01T05:09:34;17.90;99.90
15115;DHT22;7658;51.456;7.622;2022-08-01T05:12:03;18.00;99.90
15115;DHT22;7658;51.456;7.622;2022-08-01T05:14:29;18.00;99.90
15115;DHT22;7658;51.456;7.622;2022-08-01T05:16:59;18.00;99.90
15115;DHT22;7658;51.456;7.622;2022-08-01T05:19:32;18.10;99.90
15115;DHT22;7658;51.456;7.622;2022-08-01T05:21:59;18.10;99.90
15115;DHT22;7658;51.456;7.622;2022-08-01T05:24:29;18.10;99.90
15115;DHT22;7658;51.456;7.622;2022-08-01T05:26:56;18.20;99.90
15115;DHT22;7658;51.456;7.622;2022-08-01T05:29:22;18.20;99.90
15115;DHT22;7658;51.456;7.622;2022-08-01T05:31:47;18.20;99.90
15115;DHT22;7658;51.456;7.622;2022-08-01T05:34:13;18.20;99.90
15115;DHT22;7658;51.456;7.622;2022-08-01T05:36:40;18.20;99.90
15115;DHT22;7658;51.456;7.622;2022-08-01T05:39:05;18.20;99.90
15115;DHT22;7658;51.456;7.622;2022-08-01T05:41:31;18.20;99.90
15115;DHT22;7658;51.456;7.622;2022-08-01T05:43:57;18.20;99.90
15115;DHT22;7658;51.456;7.622;2022-08-01T05:46:22;18.20;99.90
15115;DHT22;7658;51.456;7.622;2022-08-01T05:48:48;18.10;99.90
15115;DHT22;7658;51.456;7.622;2022-08-01T05:51:14;18.20;99.90
15115;DHT22;7658;51.456;7.622;2022-08-01T05:53:40;18.20;99.90
15115;DHT22;7658;51.456;7.622;2022-08-01T05:56:05;18.20;99.90
15115;DHT22;7658;51.456;7.622;2022-08-01T05:58:31;18.20;99.90
15115;DHT22;7658;51.456;7.622;2022-08-01T06:00:57;18.30;99.90
15115;DHT22;7658;51.456;7.622;2022-08-01T06:03:23;18.30;99.90
15115;DHT22;7658;51.456;7.622;2022-08-01T06:05:51;18.30;99.90
15115;DHT22;7658;51.456;7.622;2022-08-01T06:08:17;18.30;99.90
15115;DHT22;7658;51.456;7.622;2022-08-01T06:10:43;18.40;99.90
15115;DHT22;7658;51.456;7.622;2022-08-01T06:13:08;18.40;99.90
15115;DHT22;7658;51.456;7.622;2022-08-01T06:15:34;18.40;99.90
15115;DHT22;7658;51.456;7.622;2022-08-01T06:18:00;18.40;99.90
15115;DHT22;7658;51.456;7.622;2022-08-01T06:20:26;18.30;99.90
15115;DHT22;7658;51.456;7.622;2022-08-01T06:22:52;18.30;99.90
15115;DHT22;7658;51.456;7.622;2022-08-01T06:25:18;18.20;99.90
15115;DHT22;7658;51.456;7.622;2022-08-01T06:27:44;18.20;99.90
15115;DHT22;7658;51.456;7.622;2022-08-01T06:30:10;18.30;99.90
15115;DHT22;7658;51.456;7.622;2022-08-01T06:32:36;18.30;99.90
15115;DHT22;7658;51.456;7.622;2022-08-01T06:35:02;18.20;99.90
15115;DHT22;7658;51.456;7.622;2022-08-01T06:37:29;18.30;99.90
15115;DHT22;7658;51.456;7.622;2022-08-01T06:39:55;18.30;99.90
15115;DHT22;7658;51.456;7.622;2022-08-01T06:42:21;18.40;99.90
15115;DHT22;7658;51.456;7.622;2022-08-01T06:44:47;18.50;99.90
15115;DHT22;7658;51.456;7.622;2022-08-01T06:47:13;18.40;99.90
15115;DHT22;7658;51.456;7.622;2022-08-01T06:49:39;18.40;99.90
15115;DHT22;7658;51.456;7.622;2022-08-01T06:52:04;18.60;99.90
15115;DHT22;7658;51.456;7.622;2022-08-01T06:54:30;18.70;99.90
15115;DHT22;7658;51.456;7.622;2022-08-01T06:56:56;18.70;99.90
15115;DHT22;7658;51.456;7.622;2022-08-01T06:59:21;18.60;99.90
15115;DHT22;7658;51.456;7.622;2022-08-01T07:01:47;18.60;99.90
15115;DHT22;7658;51.456;7.622;2022-08-01T07:04:13;18.70;99.90
15115;DHT22;7658;51.456;7.622;2022-08-01T07:06:39;18.60;99.90
15115;DHT22;7658;51.456;7.622;2022-08-01T07:09:04;18.70;99.90
15115;DHT22;7658;51.456;7.622;2022-08-01T07:11:30;18.70;99.90
15115;DHT22;7658;51.456;7.622;2022-08-01T07:13:56;18.70;99.90
15115;DHT22;7658;51.456;7.622;2022-08-01T07:16:22;18.70;99.90
15115;DHT22;7658;51.456;7.622;2022-08-01T07:18:48;18.80;99.90
15115;DHT22;7658;51.456;7.622;2022-08-01T07:21:14;18.70;99.90
15115;DHT22;7658;51.456;7.622;2022-08-01T07:23:39;18.70;99.90
15115;DHT22;7658;51.456;7.622;2022-08-01T07:26:05;18.70;99.90
15115;DHT22;7658;51.456;7.622;2022-08-01T07:28:32;18.80;99.90
15115;DHT22;7658;51.456;7.622;2022-08-01T07:30:57;18.90;99.90
15115;DHT22;7658;51.456;7.622;2022-08-01T07:33:23;18.90;99.90
15115;DHT22;7658;51.456;7.622;2022-08-01T07:35:49;19.00;99.90
15115;DHT22;7658;51.456;7.622;2022-08-01T07:38:14;18.90;99.90
15115;DHT22;7658;51.456;7.622;2022-08-01T07:40:43;19.00;99.90
15115;DHT22;7658;51.456;7.622;2022-08-01T07:43:09;19.00;99.90
15115;DHT22;7658;51.456;7.622;2022-08-01T07:45:35;19.10;99.90
15115;DHT22;7658;51.456;7.622;2022-08-01T07:48:04;19.10;99.90
15115;DHT22;7658;51.456;7.622;2022-08-01T07:50:30;19.20;99.90
15115;DHT22;7658;51.456;7.622;2022-08-01T07:52:56;19.20;99.90
15115;DHT22;7658;51.456;7.622;2022-08-01T07:55:22;19.30;99.90
15115;DHT22;7658;51.456;7.622;2022-08-01T07:57:47;19.30;99.90
15115;DHT22;7658;51.456;7.622;2022-08-01T08:00:14;19.40;99.90
15115;DHT22;7658;51.456;7.622;2022-08-01T08:02:39;19.40;99.90
15115;DHT22;7658;51.456;7.622;2022-08-01T08:05:06;19.40;99.90
15115;DHT22;7658;51.456;7.622;2022-08-01T08:07:32;19.40;99.90
15115;DHT22;7658;51.456;7.622;2022-08-01T08:09:58;19.40;99.90
15115;DHT22;7658;51.456;7.622;2022-08-01T08:12:24;19.50;99.90
15115;DHT22;7658;51.456;7.622;2022-08-01T08:14:50;19.70;99.90
15115;DHT22;7658;51.456;7.622;2022-08-01T08:17:16;19.90;99.90
15115;DHT22;7658;51.456;7.622;2022-08-01T08:19:42;20.10;99.90
15115;DHT22;7658;51.456;7.622;2022-08-01T08:22:08;20.10;99.90
15115;DHT22;7658;51.456;7.622;2022-08-01T08:24:35;20.20;99.90
15115;DHT22;7658;51.456;7.622;2022-08-01T08:27:02;20.20;99.90
15115;DHT22;7658;51.456;7.622;2022-08-01T08:29:29;20.30;99.90
15115;DHT22;7658;51.456;7.622;2022-08-01T08:31:57;20.50;99.90
15115;DHT22;7658;51.456;7.622;2022-08-01T08:34:24;20.60;99.90
15115;DHT22;7658;51.456;7.622;2022-08-01T08:36:50;20.70;99.90
15115;DHT22;7658;51.456;7.622;2022-08-01T08:39:17;20.80;99.90
15115;DHT22;7658;51.456;7.622;2022-08-01T08:41:43;20.80;99.90
15115;DHT22;7658;51.456;7.622;2022-08-01T08:44:10;20.90;99.90
15115;DHT22;7658;51.456;7.622;2022-08-01T08:46:45;20.90;99.90
15115;DHT22;7658;51.456;7.622;2022-08-01T08:49:12;20.90;99.90
15115;DHT22;7658;51.456;7.622;2022-08-01T08:51:42;21.00;99.90
15115;DHT22;7658;51.456;7.622;2022-08-01T08:54:11;21.00;99.90
15115;DHT22;7658;51.456;7.622;2022-08-01T08:56:38;20.90;99.90
15115;DHT22;7658;51.456;7.622;2022-08-01T08:59:04;20.90;99.90
15115;DHT22;7658;51.456;7.622;2022-08-01T09:01:31;20.90;99.90
15115;DHT22;7658;51.456;7.622;2022-08-01T09:04:04;21.10;99.90
15115;DHT22;7658;51.456;7.622;2022-08-01T09:06:31;21.20;99.90
15115;DHT22;7658;51.456;7.622;2022-08-01T09:08:57;21.40;99.90
15115;DHT22;7658;51.456;7.622;2022-08-01T09:11:23;21.50;99.90
15115;DHT22;7658;51.456;7.622;2022-08-01T09:14:13;21.60;99.90
15115;DHT22;7658;51.456;7.622;2022-08-01T09:16:42;21.50;99.90
15115;DHT22;7658;51.456;7.622;2022-08-01T09:19:12;21.40;99.90
15115;DHT22;7658;51.456;7.622;2022-08-01T09:21:38;21.20;99.90
15115;DHT22;7658;51.456;7.622;2022-08-01T09:24:13;21.10;99.90
15115;DHT22;7658;51.456;7.622;2022-08-01T09:26:40;21.10;99.90
15115;DHT22;7658;51.456;7.622;2022-08-01T09:29:07;21.00;99.90
15115;DHT22;7658;51.456;7.622;2022-08-01T09:31:41;21.00;99.90
15115;DHT22;7658;51.456;7.622;2022-08-01T09:34:07;21.00;99.90
15115;DHT22;7658;51.456;7.622;2022-08-01T09:36:53;21.00;99.90
15115;DHT22;7658;51.456;7.622;2022-08-01T09:39:24;21.30;99.90
15115;DHT22;7658;51.456;7.622;2022-08-01T09:41:50;21.60;99.90
15115;DHT22;7658;51.456;7.622;2022-08-01T09:44:17;21.70;99.90
15115;DHT22;7658;51.456;7.622;2022-08-01T09:46:54;21.80;99.90
15115;DHT22;7658;51.456;7.622;2022-08-01T09:49:34;22.00;99.90
15115;DHT22;7658;51.456;7.622;2022-08-01T09:52:13;22.20;99.90
15115;DHT22;7658;51.456;7.622;2022-08-01T09:54:40;22.20;99.90
15115;DHT22;7658;51.456;7.622;2022-08-01T09:57:12;22.40;99.90
15115;DHT22;7658;51.456;7.622;2022-08-01T09:59:39;22.70;99.90
15115;DHT22;7658;51.456;7.622;2022-08-01T10:02:11;22.90;99.90
15115;DHT22;7658;51.456;7.622;2022-08-01T10:04:51;22.80;99.90
15115;DHT22;7658;51.456;7.622;2022-08-01T10:07:18;22.80;99.90
15115;DHT22;7658;51.456;7.622;2022-08-01T10:09:45;22.90;99.90
15115;DHT22;7658;51.456;7.622;2022-08-01T10:12:13;23.00;99.90
15115;DHT22;7658;51.456;7.622;2022-08-01T10:14:40;23.10;99.90
15115;DHT22;7658;51.456;7.622;2022-08-01T10:17:08;22.80;99.90
15115;DHT22;7658;51.456;7.622;2022-08-01T10:19:35;22.50;99.90
15115;DHT22;7658;51.456;7.622;2022-08-01T10:22:05;22.30;99.90
15115;DHT22;7658;51.456;7.622;2022-08-01T10:24:39;22.20;99.90
15115;DHT22;7658;51.456;7.622;2022-08-01T10:27:08;22.20;99.90
15115;DHT22;7658;51.456;7.622;2022-08-01T10:29:40;22.00;99.90
15115;DHT22;7658;51.456;7.622;2022-08-01T10:32:06;21.90;99.90
15115;DHT22;7658;51.456;7.622;2022-08-01T10:34:35;22.00;99.90
15115;DHT22;7658;51.456;7.622;2022-08-01T10:37:02;22.20;99.90
15115;DHT22;7658;51.456;7.622;2022-08-01T10:39:28;22.40;99.90
15115;DHT22;7658;51.456;7.622;2022-08-01T10:41:55;22.50;99.90
15115;DHT22;7658;51.456;7.622;2022-08-01T10:44:26;22.60;99.90
15115;DHT22;7658;51.456;7.622;2022-08-01T10:46:57;22.50;99.90
15115;DHT22;7658;51.456;7.622;2022-08-01T10:49:29;22.50;99.90
15115;DHT22;7658;51.456;7.622;2022-08-01T10:51:55;22.60;99.90
15115;DHT22;7658;51.456;7.622;2022-08-01T10:54:25;22.50;99.90
15115;DHT22;7658;51.456;7.622;2022-08-01T10:56:52;22.50;99.90
15115;DHT22;7658;51.456;7.622;2022-08-01T10:59:23;22.70;99.90
15115;DHT22;7658;51.456;7.622;2022-08-01T11:02:01;22.70;99.90
15115;DHT22;7658;51.456;7.622;2022-08-01T11:07:18;22.80;99.90
15115;DHT22;7658;51.456;7.622;2022-08-01T11:09:47;22.90;99.90
15115;DHT22;7658;51.456;7.622;2022-08-01T11:12:14;23.00;99.90
15115;DHT22;7658;51.456;7.622;2022-08-01T11:20:11;22.80;99.90
15115;DHT22;7658;51.456;7.622;2022-08-01T11:30:45;22.60;99.90
15115;DHT22;7658;51.456;7.622;2022-08-01T11:33:13;22.80;99.90
15115;DHT22;7658;51.456;7.622;2022-08-01T11:41:29;23.10;99.90
15115;DHT22;7658;51.456;7.622;2022-08-01T11:44:09;23.50;99.90
15115;DHT22;7658;51.456;7.622;2022-08-01T11:52:12;24.40;99.90
15115;DHT22;7658;51.456;7.622;2022-08-01T11:57:22;24.10;99.90
15115;DHT22;7658;51.456;7.622;2022-08-01T11:59:54;24.00;99.90
15115;DHT22;7658;51.456;7.622;2022-08-01T12:02:25;24.20;99.90
15115;DHT22;7658;51.456;7.622;2022-08-01T12:04:55;24.50;99.90
15115;DHT22;7658;51.456;7.622;2022-08-01T12:07:22;24.50;99.90
15115;DHT22;7658;51.456;7.622;2022-08-01T12:10:04;24.80;99.90
15115;DHT22;7658;51.456;7.622;2022-08-01T12:12:31;25.20;99.90
15115;DHT22;7658;51.456;7.622;2022-08-01T12:15:06;25.20;99.90
15115;DHT22;7658;51.456;7.622;2022-08-01T12:17:36;24.80;99.90
15115;DHT22;7658;51.456;7.622;2022-08-01T12:20:05;24.60;99.90
15115;DHT22;7658;51.456;7.622;2022-08-01T12:22:31;24.20;99.90
15115;DHT22;7658;51.456;7.622;2022-08-01T12:27:33;23.70;99.90
15115;DHT22;7658;51.456;7.622;2022-08-01T12:30:00;23.80;99.90
15115;DHT22;7658;51.456;7.622;2022-08-01T12:32:29;24.00;99.90
15115;DHT22;7658;51.456;7.622;2022-08-01T12:35:05;24.30;99.90
15115;DHT22;7658;51.456;7.622;2022-08-01T12:37:42;24.40;99.90
15115;DHT22;7658;51.456;7.622;2022-08-01T12:40:18;24.60;99.90
15115;DHT22;7658;51.456;7.622;2022-08-01T12:42:46;25.00;99.90
15115;DHT22;7658;51.456;7.622;2022-08-01T12:45:15;25.10;99.90
15115;DHT22;7658;51.456;7.622;2022-08-01T12:47:42;25.30;99.90
15115;DHT22;7658;51.456;7.622;2022-08-01T12:50:13;25.50;99.90
15115;DHT22;7658;51.456;7.622;2022-08-01T12:52:40;25.70;99.90
15115;DHT22;7658;51.456;7.622;2022-08-01T12:55:12;25.50;99.90
15115;DHT22;7658;51.456;7.622;2022-08-01T12:57:43;25.20;99.90
15115;DHT22;7658;51.456;7.622;2022-08-01T13:00:15;25.00;99.90
15115;DHT22;7658;51.456;7.622;2022-08-01T13:02:43;24.60;99.90
15115;DHT22;7658;51.456;7.622;2022-08-01T13:05:10;24.40;99.90
15115;DHT22;7658;51.456;7.622;2022-08-01T13:07:50;24.60;99.90
15115;DHT22;7658;51.456;7.622;2022-08-01T13:10:28;24.90;99.90
15115;DHT22;7658;51.456;7.622;2022-08-01T13:12:58;25.20;99.90
15115;DHT22;7658;51.456;7.622;2022-08-01T13:15:27;25.70;99.90
15115;DHT22;7658;51.456;7.622;2022-08-01T13:17:54;26.00;99.90
15115;DHT22;7658;51.456;7.622;2022-08-01T13:20:31;25.70;99.90
15115;DHT22;7658;51.456;7.622;2022-08-01T13:23:17;25.20;99.90
15115;DHT22;7658;51.456;7.622;2022-08-01T13:30:58;25.60;99.90
15115;DHT22;7658;51.456;7.622;2022-08-01T13:33:26;25.30;99.90
15115;DHT22;7658;51.456;7.622;2022-08-01T13:35:54;24.80;99.90
15115;DHT22;7658;51.456;7.622;2022-08-01T13:38:21;24.50;99.90
15115;DHT22;7658;51.456;7.622;2022-08-01T13:41:07;24.20;99.90
15115;DHT22;7658;51.456;7.622;2022-08-01T13:43:33;24.70;99.90
15115;DHT22;7658;51.456;7.622;2022-08-01T13:46:00;25.40;99.90
15115;DHT22;7658;51.456;7.622;2022-08-01T13:48:30;25.80;99.90
15115;DHT22;7658;51.456;7.622;2022-08-01T13:50:56;25.80;99.90
15115;DHT22;7658;51.456;7.622;2022-08-01T13:53:22;25.60;99.90
15115;DHT22;7658;51.456;7.622;2022-08-01T13:55:47;25.20;99.90
15115;DHT22;7658;51.456;7.622;2022-08-01T13:58:13;24.90;99.90
15115;DHT22;7658;51.456;7.622;2022-08-01T14:00:39;24.50;99.90
15115;DHT22;7658;51.456;7.622;2022-08-01T14:03:05;24.50;99.90
15115;DHT22;7658;51.456;7.622;2022-08-01T14:05:31;24.70;99.90
15115;DHT22;7658;51.456;7.622;2022-08-01T14:07:56;24.90;99.90
15115;DHT22;7658;51.456;7.622;2022-08-01T14:10:25;25.00;99.90
15115;DHT22;7658;51.456;7.622;2022-08-01T14:12:51;25.30;99.90
15115;DHT22;7658;51.456;7.622;2022-08-01T14:15:17;25.50;99.90
15115;DHT22;7658;51.456;7.622;2022-08-01T14:17:42;25.70;99.90
15115;DHT22;7658;51.456;7.622;2022-08-01T14:20:09;25.60;99.90
15115;DHT22;7658;51.456;7.622;2022-08-01T14:22:35;25.70;99.90
15115;DHT22;7658;51.456;7.622;2022-08-01T14:25:00;25.60;99.90
15115;DHT22;7658;51.456;7.622;2022-08-01T14:27:26;25.50;99.90
15115;DHT22;7658;51.456;7.622;2022-08-01T14:29:53;25.30;99.90
15115;DHT22;7658;51.456;7.622;2022-08-01T14:32:19;25.20;99.90
15115;DHT22;7658;51.456;7.622;2022-08-01T14:34:45;24.80;99.90
15115;DHT22;7658;51.456;7.622;2022-08-01T14:37:10;24.50;99.90
15115;DHT22;7658;51.456;7.622;2022-08-01T14:39:36;24.30;99.90
15115;DHT22;7658;51.456;7.622;2022-08-01T14:42:02;24.20;99.90
15115;DHT22;7658;51.456;7.622;2022-08-01T14:44:28;24.60;99.90
15115;DHT22;7658;51.456;7.622;2022-08-01T14:46:53;25.20;99.90
15115;DHT22;7658;51.456;7.622;2022-08-01T14:49:19;25.70;99.90
15115;DHT22;7658;51.456;7.622;2022-08-01T14:51:45;26.00;99.90
15115;DHT22;7658;51.456;7.622;2022-08-01T14:54:11;26.10;99.90
15115;DHT22;7658;51.456;7.622;2022-08-01T14:56:36;26.00;99.90
15115;DHT22;7658;51.456;7.622;2022-08-01T14:59:02;26.10;99.90
15115;DHT22;7658;51.456;7.622;2022-08-01T15:01:28;26.00;99.90
15115;DHT22;7658;51.456;7.622;2022-08-01T15:03:54;25.70;99.90
15115;DHT22;7658;51.456;7.622;2022-08-01T15:06:21;25.30;99.90
15115;DHT22;7658;51.456;7.622;2022-08-01T15:08:47;24.90;99.90
15115;DHT22;7658;51.456;7.622;2022-08-01T15:11:13;24.50;99.90
15115;DHT22;7658;51.456;7.622;2022-08-01T15:13:48;24.20;99.90
15115;DHT22;7658;51.456;7.622;2022-08-01T15:16:34;24.00;99.90
15115;DHT22;7658;51.456;7.622;2022-08-01T15:18:59;24.00;99.90
15115;DHT22;7658;51.456;7.622;2022-08-01T15:21:25;24.20;99.90
15115;DHT22;7658;51.456;7.622;2022-08-01T15:23:51;24.40;99.90
15115;DHT22;7658;51.456;7.622;2022-08-01T15:26:17;24.50;99.90
15115;DHT22;7658;51.456;7.622;2022-08-01T15:28:42;24.70;99.90
15115;DHT22;7658;51.456;7.622;2022-08-01T15:31:08;25.00;99.90
15115;DHT22;7658;51.456;7.622;2022-08-01T15:33:34;25.20;99.90
15115;DHT22;7658;51.456;7.622;2022-08-01T15:36:00;25.30;99.90
15115;DHT22;7658;51.456;7.622;2022-08-01T15:38:26;25.50;99.90
15115;DHT22;7658;51.456;7.622;2022-08-01T15:40:51;25.40;99.90
15115;DHT22;7658;51.456;7.622;2022-08-01T15:43:17;25.50;99.90
15115;DHT22;7658;51.456;7.622;2022-08-01T15:45:43;25.60;99.90
15115;DHT22;7658;51.456;7.622;2022-08-01T15:48:09;25.70;99.90
15115;DHT22;7658;51.456;7.622;2022-08-01T15:50:34;25.80;99.90
15115;DHT22;7658;51.456;7.622;2022-08-01T15:53:03;25.80;99.90
15115;DHT22;7658;51.456;7.622;2022-08-01T15:55:28;25.60;99.90
15115;DHT22;7658;51.456;7.622;2022-08-01T15:57:54;25.50;99.90
15115;DHT22;7658;51.456;7.622;2022-08-01T16:00:20;25.30;99.90
15115;DHT22;7658;51.456;7.622;2022-08-01T16:02:46;25.10;99.90
15115;DHT22;7658;51.456;7.622;2022-08-01T16:05:12;25.00;99.90
15115;DHT22;7658;51.456;7.622;2022-08-01T16:07:38;25.00;99.90
15115;DHT22;7658;51.456;7.622;2022-08-01T16:10:05;24.90;99.90
15115;DHT22;7658;51.456;7.622;2022-08-01T16:12:31;24.90;99.90
15115;DHT22;7658;51.456;7.622;2022-08-01T16:14:57;25.00;99.90
15115;DHT22;7658;51.456;7.622;2022-08-01T16:17:23;25.10;99.90
15115;DHT22;7658;51.456;7.622;2022-08-01T16:19:49;25.30;99.90
15115;DHT22;7658;51.456;7.622;2022-08-01T16:22:15;25.30;99.90
15115;DHT22;7658;51.456;7.622;2022-08-01T16:24:41;25.30;99.90
15115;DHT22;7658;51.456;7.622;2022-08-01T16:27:07;25.40;99.90
15115;DHT22;7658;51.456;7.622;2022-08-01T16:29:32;25.20;99.90
15115;DHT22;7658;51.456;7.622;2022-08-01T16:31:59;25.00;99.90
15115;DHT22;7658;51.456;7.622;2022-08-01T16:34:26;24.80;99.90
15115;DHT22;7658;51.456;7.622;2022-08-01T16:36:52;24.50;99.90